Time;durP1;ratioP1;P1;durP2;ratioP2;P2;SDS_P1;SDS_P2;PMS_P1;PMS_P2;Temp;Humidity;BMP_temperature;BMP_pressure;BME280_temperature;BME280_humidity;BME280_pressure;Samples;Min_cycle;Max_cycle;Signal;HPM_P1;HPM_P2
2022/09/28 00:00:18;;;;;;;9.20;7.07;;;9.10;99.90;;;;;;5124868;27;20193;-50
2022/09/28 00:02:46;;;;;;;8.70;6.43;;;9.10;99.90;;;;;;5125911;27;20325;-49
2022/09/28 00:05:12;;;;;;;10.17;6.97;;;9.10;99.90;;;;;;5124988;27;20199;-51
2022/09/28 00:07:39;;;;;;;8.20;6.80;;;9.10;99.90;;;;;;5125157;27;20208;-50
2022/09/28 00:10:06;;;;;;;7.23;6.20;;;9.10;99.90;;;;;;5103979;27;20203;-49
2022/09/28 00:12:33;;;;;;;10.63;6.87;;;9.10;99.90;;;;;;5102197;28;20186;-46
2022/09/28 00:15:00;;;;;;;7.50;6.73;;;9.10;99.90;;;;;;5105418;27;20197;-48
2022/09/28 00:17:26;;;;;;;8.23;6.40;;;9.00;99.90;;;;;;5102200;28;20209;-46
2022/09/28 00:19:56;;;;;;;8.23;6.57;;;9.10;99.90;;;;;;5116353;27;20194;-46
2022/09/28 00:22:23;;;;;;;8.10;7.30;;;9.00;99.90;;;;;;5123074;27;20728;-50
2022/09/28 00:24:50;;;;;;;9.13;6.30;;;9.10;99.90;;;;;;5124684;27;20181;-51
2022/09/28 00:27:16;;;;;;;7.33;6.50;;;9.10;99.90;;;;;;5091767;27;20225;-51
2022/09/28 00:29:43;;;;;;;8.13;6.57;;;9.10;99.90;;;;;;5103099;28;20194;-48
2022/09/28 00:32:12;;;;;;;7.70;6.80;;;9.10;99.90;;;;;;5105378;27;20580;-48
2022/09/28 00:34:42;;;;;;;6.90;6.30;;;9.10;99.90;;;;;;5102621;28;20212;-54
2022/09/28 00:37:10;;;;;;;9.07;6.67;;;9.10;99.90;;;;;;5105596;27;20217;-50
2022/09/28 00:39:37;;;;;;;7.63;6.13;;;9.10;99.90;;;;;;5102729;28;20894;-48
2022/09/28 00:42:10;;;;;;;7.47;6.77;;;9.00;99.90;;;;;;5091805;27;20217;-46
2022/09/28 00:44:42;;;;;;;8.27;7.43;;;8.90;99.90;;;;;;5100660;28;20193;-47
2022/09/28 00:47:20;;;;;;;7.80;7.00;;;8.90;99.90;;;;;;5103969;28;20240;-51
2022/09/28 00:49:51;;;;;;;8.50;6.93;;;8.90;99.90;;;;;;5114207;27;20252;-46
2022/09/28 00:52:23;;;;;;;10.23;7.50;;;8.90;99.90;;;;;;5123964;27;20653;-52
2022/09/28 00:54:51;;;;;;;9.13;7.00;;;8.80;99.90;;;;;;5123829;27;20871;-47
2022/09/28 00:57:19;;;;;;;8.47;6.90;;;8.80;99.90;;;;;;5090449;27;20237;-50
2022/09/28 00:59:46;;;;;;;11.87;8.20;;;8.80;99.90;;;;;;5103196;28;20563;-51
2022/09/28 01:02:13;;;;;;;8.27;7.37;;;8.80;99.90;;;;;;5104123;28;20215;-53
2022/09/28 01:04:39;;;;;;;8.97;7.17;;;8.80;99.90;;;;;;5102253;27;20185;-53
2022/09/28 01:07:08;;;;;;;7.97;7.20;;;8.70;99.90;;;;;;5103993;28;20285;-49
2022/09/28 01:09:39;;;;;;;8.30;7.40;;;8.70;99.90;;;;;;5101016;28;20193;-52
2022/09/28 01:12:06;;;;;;;8.60;7.63;;;8.70;99.90;;;;;;5090848;27;20194;-50
2022/09/28 01:14:33;;;;;;;7.60;6.90;;;8.70;99.90;;;;;;5100386;28;20196;-52
2022/09/28 01:17:07;;;;;;;7.83;7.10;;;8.70;99.90;;;;;;5098111;28;20471;-48
2022/09/28 01:19:58;;;;;;;8.07;7.27;;;8.70;99.90;;;;;;5099813;28;20204;-53
2022/09/28 01:22:35;;;;;;;10.17;7.97;;;8.60;99.90;;;;;;5079131;28;20241;-52
2022/09/28 01:25:12;;;;;;;9.30;7.37;;;8.60;99.90;;;;;;5081209;28;20209;-45
2022/09/28 01:27:44;;;;;;;8.80;7.63;;;8.60;99.90;;;;;;5073757;27;20367;-49
2022/09/28 01:30:15;;;;;;;9.80;7.47;;;8.60;99.90;;;;;;5093121;28;20196;-52
2022/09/28 01:32:49;;;;;;;9.30;7.57;;;8.60;99.90;;;;;;5097809;27;20208;-52
2022/09/28 01:35:20;;;;;;;8.17;7.40;;;8.60;99.90;;;;;;5100386;28;20184;-46
2022/09/28 01:37:53;;;;;;;9.67;7.80;;;8.60;99.90;;;;;;5104873;28;20220;-51
2022/09/28 01:40:22;;;;;;;9.13;7.27;;;8.50;99.90;;;;;;5100715;28;20196;-46
2022/09/28 01:42:55;;;;;;;8.73;7.90;;;8.50;99.90;;;;;;5102553;28;20217;-51
2022/09/28 01:45:26;;;;;;;7.40;6.70;;;8.50;99.90;;;;;;5090423;27;20197;-48
2022/09/28 01:47:56;;;;;;;7.13;6.33;;;8.40;99.90;;;;;;5094109;27;20297;-48
2022/09/28 01:50:27;;;;;;;7.73;6.87;;;8.40;99.90;;;;;;5114445;27;20193;-53
2022/09/28 01:52:59;;;;;;;7.77;6.93;;;8.30;99.90;;;;;;5124179;27;20185;-50
2022/09/28 01:55:31;;;;;;;8.33;6.87;;;8.30;99.90;;;;;;5121118;27;20479;-46
2022/09/28 01:58:04;;;;;;;8.33;7.53;;;8.30;99.90;;;;;;5121552;27;20240;-51
2022/09/28 02:00:34;;;;;;;10.07;6.77;;;8.20;99.90;;;;;;5093522;27;20572;-52
2022/09/28 02:03:08;;;;;;;10.40;6.80;;;8.20;99.90;;;;;;5100097;28;20217;-53
2022/09/28 02:05:48;;;;;;;7.57;6.90;;;8.20;99.90;;;;;;5102939;28;20197;-51
2022/09/28 02:08:21;;;;;;;8.73;7.30;;;8.20;99.90;;;;;;5100594;28;20968;-50
2022/09/28 02:10:57;;;;;;;7.50;6.80;;;8.20;99.90;;;;;;5103810;28;20185;-51
2022/09/28 02:13:30;;;;;;;7.60;6.83;;;8.20;99.90;;;;;;5099762;28;20295;-52
2022/09/28 02:16:04;;;;;;;6.97;6.27;;;8.20;99.90;;;;;;5088688;27;20577;-50
2022/09/28 02:18:31;;;;;;;8.10;7.30;;;8.20;99.90;;;;;;5109193;27;20637;-50
2022/09/28 02:21:04;;;;;;;7.97;6.57;;;8.10;99.90;;;;;;5113862;27;20223;-52
2022/09/28 02:23:37;;;;;;;7.13;6.43;;;8.10;99.90;;;;;;5121844;27;20200;-49
2022/09/28 02:26:09;;;;;;;6.87;6.27;;;8.00;99.90;;;;;;5119791;27;20576;-48
2022/09/28 02:28:37;;;;;;;8.53;7.00;;;8.00;99.90;;;;;;5123053;27;20222;-49
2022/09/28 02:31:05;;;;;;;9.07;6.97;;;8.00;99.90;;;;;;5096284;27;20205;-53
2022/09/28 02:33:36;;;;;;;7.23;6.53;;;8.00;99.90;;;;;;5102656;28;20221;-45
2022/09/28 02:36:04;;;;;;;6.97;6.37;;;7.80;99.90;;;;;;5099762;28;20650;-50
2022/09/28 02:38:36;;;;;;;6.97;6.23;;;7.80;99.90;;;;;;5102457;28;20212;-49
2022/09/28 02:41:08;;;;;;;7.47;6.77;;;8.00;99.90;;;;;;5099485;28;20197;-48
2022/09/28 02:43:44;;;;;;;6.27;5.70;;;8.00;99.90;;;;;;5102529;28;20189;-48
2022/09/28 02:46:21;;;;;;;7.83;6.93;;;8.00;99.90;;;;;;5086417;28;20518;-48
2022/09/28 02:49:06;;;;;;;11.27;7.57;;;8.00;99.90;;;;;;5098887;28;20249;-53
2022/09/28 02:51:41;;;;;;;8.53;6.50;;;8.00;99.90;;;;;;5118425;28;20720;-50
2022/09/28 02:54:43;;;;;;;7.90;7.03;;;8.00;99.90;;;;;;5117557;27;20192;-48
2022/09/28 02:57:24;;;;;;;8.83;6.97;;;8.00;99.90;;;;;;5098169;28;20908;-47
2022/09/28 03:00:03;;;;;;;7.97;6.67;;;8.00;99.90;;;;;;5122209;27;20204;-52
2022/09/28 03:02:36;;;;;;;7.10;6.40;;;8.10;99.90;;;;;;5095317;27;20224;-50
2022/09/28 03:05:14;;;;;;;7.63;6.90;;;8.10;99.90;;;;;;5098005;28;20193;-56
2022/09/28 03:07:46;;;;;;;12.10;7.10;;;8.00;99.90;;;;;;5102163;28;20592;-46
2022/09/28 03:10:19;;;;;;;7.67;7.00;;;8.00;99.90;;;;;;5097781;28;20328;-48
2022/09/28 03:12:48;;;;;;;6.90;6.30;;;7.90;99.90;;;;;;5103296;28;20678;-47
2022/09/28 03:15:22;;;;;;;6.90;6.20;;;7.80;99.90;;;;;;5097458;28;20185;-51
2022/09/28 03:17:50;;;;;;;7.73;6.93;;;7.70;99.90;;;;;;5088271;28;20216;-49
2022/09/28 03:20:18;;;;;;;8.53;6.67;;;7.70;99.90;;;;;;5099795;28;20185;-46
2022/09/28 03:22:45;;;;;;;10.13;6.20;;;7.70;99.90;;;;;;5103347;28;20213;-48
2022/09/28 03:25:13;;;;;;;7.53;6.87;;;7.80;99.90;;;;;;5089519;28;20212;-50
2022/09/28 03:27:40;;;;;;;7.37;5.87;;;7.80;99.90;;;;;;5105716;28;20270;-50
2022/09/28 03:30:09;;;;;;;10.60;7.27;;;7.80;99.90;;;;;;5102026;28;20209;-45
2022/09/28 03:32:38;;;;;;;7.13;6.43;;;7.80;99.90;;;;;;5091233;28;20201;-48
2022/09/28 03:35:08;;;;;;;9.47;6.50;;;7.80;99.90;;;;;;5098215;28;20197;-49
2022/09/28 03:37:35;;;;;;;7.27;6.33;;;7.70;99.90;;;;;;5100885;28;20213;-49
2022/09/28 03:40:04;;;;;;;7.60;6.80;;;7.70;99.90;;;;;;5100708;28;20185;-47
2022/09/28 03:42:35;;;;;;;6.73;6.13;;;7.70;99.90;;;;;;5100413;28;20221;-50
2022/09/28 03:45:02;;;;;;;6.90;6.20;;;7.60;99.90;;;;;;5099810;28;20201;-48
2022/09/28 03:47:29;;;;;;;6.80;6.20;;;7.50;99.90;;;;;;5100388;28;20254;-46
2022/09/28 03:49:59;;;;;;;6.83;6.23;;;7.50;99.90;;;;;;5104019;27;20204;-52
2022/09/28 03:52:28;;;;;;;7.40;6.30;;;7.50;99.90;;;;;;5121588;28;20189;-48
2022/09/28 03:54:55;;;;;;;7.20;5.73;;;7.50;99.90;;;;;;5108413;27;20401;-46
2022/09/28 03:57:21;;;;;;;8.40;6.37;;;7.40;99.90;;;;;;5101784;28;20221;-47
2022/09/28 03:59:49;;;;;;;6.40;5.80;;;7.30;99.90;;;;;;5094677;27;22659;-47
2022/09/28 04:02:16;;;;;;;8.77;6.13;;;7.30;99.90;;;;;;5098881;27;20584;-46
2022/09/28 04:04:43;;;;;;;6.20;5.70;;;7.40;99.90;;;;;;5084509;27;20214;-50
2022/09/28 04:07:11;;;;;;;6.87;5.87;;;7.30;99.90;;;;;;5105194;28;20215;-44
2022/09/28 04:09:38;;;;;;;7.77;5.53;;;7.30;99.90;;;;;;5102529;27;20189;-50
2022/09/28 04:12:06;;;;;;;7.20;6.40;;;7.30;99.90;;;;;;5104420;28;20663;-48
2022/09/28 04:14:33;;;;;;;8.17;6.57;;;7.20;99.90;;;;;;5101102;28;20250;-48
2022/09/28 04:17:00;;;;;;;7.23;6.37;;;7.20;99.90;;;;;;5100768;28;20299;-48
2022/09/28 04:19:29;;;;;;;6.93;6.23;;;7.30;99.90;;;;;;5107183;27;20223;-49
2022/09/28 04:22:05;;;;;;;9.37;6.20;;;7.40;99.90;;;;;;5094892;28;20758;-51
2022/09/28 04:24:33;;;;;;;8.60;6.67;;;7.40;99.90;;;;;;5101918;28;20220;-48
2022/09/28 04:29:42;;;;;;;10.20;5.97;;;7.40;99.90;;;;;;5100448;28;20280;-49
2022/09/28 04:32:10;;;;;;;7.40;6.10;;;7.30;99.90;;;;;;5100437;28;20196;-52
2022/09/28 04:34:40;;;;;;;7.17;5.70;;;7.20;99.90;;;;;;5090689;27;20280;-45
2022/09/28 04:37:06;;;;;;;8.67;6.27;;;7.20;99.90;;;;;;5102742;28;20266;-46
2022/09/28 04:39:35;;;;;;;6.30;5.67;;;7.10;99.90;;;;;;5102726;28;20652;-48
2022/09/28 04:42:02;;;;;;;6.70;5.70;;;7.10;99.90;;;;;;5103471;28;20939;-48
2022/09/28 04:44:29;;;;;;;5.87;5.37;;;7.10;99.90;;;;;;5102101;28;20200;-49
2022/09/28 04:47:00;;;;;;;7.33;5.87;;;7.00;99.90;;;;;;5098252;27;20225;-51
2022/09/28 04:49:29;;;;;;;5.30;4.80;;;7.00;99.90;;;;;;5112481;27;20569;-49
2022/09/28 04:52:02;;;;;;;5.80;5.20;;;6.90;99.90;;;;;;5092824;27;20198;-49
2022/09/28 04:54:29;;;;;;;6.80;6.10;;;6.80;99.90;;;;;;5104795;27;20670;-45
2022/09/28 04:56:57;;;;;;;6.97;6.27;;;6.80;99.90;;;;;;5102127;28;20205;-49
2022/09/28 04:59:25;;;;;;;9.50;5.53;;;6.90;99.90;;;;;;5103802;28;20197;-48
2022/09/28 05:01:53;;;;;;;10.50;6.40;;;6.80;99.90;;;;;;5096621;27;20348;-46
2022/09/28 05:04:35;;;;;;;12.27;6.63;;;6.90;99.90;;;;;;5100769;28;20205;-49
2022/09/28 05:07:11;;;;;;;7.70;6.50;;;6.90;99.90;;;;;;5085466;27;20244;-46
2022/09/28 05:09:38;;;;;;;27.23;8.17;;;6.90;99.90;;;;;;5108201;27;20617;-49
2022/09/28 05:12:09;;;;;;;32.80;7.93;;;7.00;99.90;;;;;;5123349;27;20249;-51
2022/09/28 05:14:37;;;;;;;34.83;7.30;;;7.00;99.90;;;;;;5100014;28;20724;-49
2022/09/28 05:17:04;;;;;;;34.30;7.47;;;6.90;99.90;;;;;;5082868;28;20217;-48
2022/09/28 05:19:56;;;;;;;31.20;7.77;;;6.90;99.90;;;;;;5102916;27;20266;-50
2022/09/28 05:22:23;;;;;;;41.17;8.53;;;6.90;99.90;;;;;;5091758;27;20221;-45
2022/09/28 05:24:50;;;;;;;57.27;8.73;;;6.90;99.90;;;;;;5098766;28;20239;-48
2022/09/28 05:27:18;;;;;;;56.17;9.10;;;6.90;99.90;;;;;;5103801;28;20614;-48
2022/09/28 05:29:54;;;;;;;89.73;9.97;;;7.00;99.90;;;;;;5100608;28;20189;-50
2022/09/28 05:32:33;;;;;;;21.80;8.43;;;7.00;99.90;;;;;;5101381;28;20744;-49
2022/09/28 05:35:20;;;;;;;76.53;10.53;;;7.10;99.90;;;;;;5100705;28;20208;-46
2022/09/28 05:37:48;;;;;;;70.90;10.87;;;7.10;99.90;;;;;;5087173;27;20224;-48
2022/09/28 05:40:15;;;;;;;68.47;10.27;;;7.20;99.90;;;;;;5102554;28;20291;-49
2022/09/28 05:42:44;;;;;;;78.77;10.23;;;7.20;99.90;;;;;;5095226;28;20210;-48
2022/09/28 05:45:12;;;;;;;43.23;10.60;;;7.20;99.90;;;;;;5099312;28;20685;-47
2022/09/28 05:47:44;;;;;;;29.77;11.20;;;7.20;99.90;;;;;;5095396;27;20282;-49
2022/09/28 05:50:15;;;;;;;16.40;11.30;;;7.30;99.90;;;;;;5101332;27;20208;-45
2022/09/28 05:52:43;;;;;;;17.17;11.20;;;7.30;99.90;;;;;;5086987;27;20205;-50
2022/09/28 05:55:10;;;;;;;15.17;10.77;;;7.40;99.90;;;;;;5106477;27;20265;-48
2022/09/28 05:57:37;;;;;;;17.10;12.10;;;7.40;99.90;;;;;;5097511;28;20221;-45
2022/09/28 06:00:08;;;;;;;22.70;13.77;;;7.40;99.90;;;;;;5101160;28;20281;-45
2022/09/28 06:02:56;;;;;;;23.00;13.93;;;7.50;99.90;;;;;;5098970;28;20219;-46
2022/09/28 06:05:23;;;;;;;20.03;13.77;;;7.50;99.90;;;;;;5102036;27;20207;-45
2022/09/28 06:07:50;;;;;;;20.93;12.77;;;7.60;99.90;;;;;;5100758;28;20279;-49
2022/09/28 06:10:17;;;;;;;25.20;15.40;;;7.60;99.90;;;;;;5091031;27;20333;-48
2022/09/28 06:12:46;;;;;;;22.87;13.87;;;7.70;99.90;;;;;;5098835;28;20974;-49
2022/09/28 06:15:17;;;;;;;19.93;14.40;;;7.70;99.90;;;;;;5102000;28;20226;-49
2022/09/28 06:17:45;;;;;;;22.63;15.13;;;7.80;99.90;;;;;;5099207;28;20982;-45
2022/09/28 06:20:34;;;;;;;31.17;16.97;;;7.80;99.90;;;;;;5113886;27;20219;-46
2022/09/28 06:23:19;;;;;;;27.67;16.33;;;7.80;99.90;;;;;;5122786;27;20205;-48
2022/09/28 06:25:46;;;;;;;33.70;17.47;;;7.90;99.90;;;;;;5088114;27;20632;-49
2022/09/28 06:28:14;;;;;;;29.43;16.73;;;7.90;99.90;;;;;;5102811;28;20197;-50
2022/09/28 06:30:43;;;;;;;30.67;17.57;;;8.00;99.90;;;;;;5098713;28;20193;-51
2022/09/28 06:33:15;;;;;;;31.63;18.23;;;8.00;99.90;;;;;;5101400;28;20276;-51
2022/09/28 06:35:42;;;;;;;29.37;17.60;;;8.00;99.90;;;;;;5098413;28;20262;-45
2022/09/28 06:38:10;;;;;;;28.80;17.10;;;8.10;99.90;;;;;;5102295;28;20194;-46
2022/09/28 06:40:37;;;;;;;28.53;16.50;;;8.10;99.90;;;;;;5087923;28;20208;-48
2022/09/28 06:43:09;;;;;;;33.57;19.03;;;8.10;99.90;;;;;;5102850;28;20248;-45
2022/09/28 06:45:56;;;;;;;32.50;20.00;;;8.20;99.90;;;;;;5101239;28;20204;-46
2022/09/28 06:48:43;;;;;;;34.97;19.83;;;8.20;99.90;;;;;;5107349;28;20346;-46
2022/09/28 06:51:18;;;;;;;31.10;19.00;;;8.20;99.90;;;;;;5115960;27;20206;-46
2022/09/28 06:53:57;;;;;;;29.90;19.13;;;8.20;99.90;;;;;;5120189;27;20181;-47
2022/09/28 06:56:40;;;;;;;30.37;19.20;;;8.20;99.90;;;;;;5087932;27;20216;-50
2022/09/28 06:59:06;;;;;;;27.40;17.50;;;8.20;99.90;;;;;;5102157;28;20213;-47
2022/09/28 07:01:36;;;;;;;32.87;19.93;;;8.20;99.90;;;;;;5099867;28;20534;-49
2022/09/28 07:04:21;;;;;;;29.73;17.57;;;8.10;99.90;;;;;;5100974;28;20223;-48
2022/09/28 07:07:11;;;;;;;33.87;20.63;;;8.10;99.90;;;;;;5103355;28;20300;-50
2022/09/28 07:10:09;;;;;;;33.30;19.57;;;8.20;99.90;;;;;;5103206;28;20213;-49
2022/09/28 07:13:01;;;;;;;37.70;21.00;;;8.20;99.90;;;;;;5115190;28;20196;-48
2022/09/28 07:15:33;;;;;;;32.83;20.30;;;8.20;99.90;;;;;;5119509;27;20192;-47
2022/09/28 07:18:04;;;;;;;32.50;20.53;;;8.20;99.90;;;;;;5117488;27;21062;-49
2022/09/28 07:20:32;;;;;;;33.63;20.10;;;8.30;99.90;;;;;;5103163;28;20197;-49
2022/09/28 07:23:02;;;;;;;33.70;20.57;;;8.30;99.90;;;;;;5119967;28;20212;-45
2022/09/28 07:25:36;;;;;;;30.30;19.40;;;8.30;99.90;;;;;;5119982;28;20192;-50
2022/09/28 07:28:10;;;;;;;32.93;21.03;;;8.30;99.90;;;;;;5097198;27;20815;-50
2022/09/28 07:30:50;;;;;;;29.57;19.70;;;8.30;99.90;;;;;;5098778;28;20897;-50
2022/09/28 07:33:37;;;;;;;33.83;20.63;;;8.30;99.90;;;;;;5099337;28;20235;-48
2022/09/28 07:36:19;;;;;;;31.93;20.20;;;8.30;99.90;;;;;;5107145;28;20201;-50
2022/09/28 07:38:47;;;;;;;32.60;19.53;;;8.30;99.90;;;;;;5102203;28;20190;-48
2022/09/28 07:41:15;;;;;;;30.73;20.30;;;8.40;99.90;;;;;;5105967;28;20189;-49
2022/09/28 07:43:46;;;;;;;36.30;21.47;;;8.40;99.90;;;;;;5089468;27;20213;-50
2022/09/28 07:46:13;;;;;;;32.37;21.63;;;8.50;99.90;;;;;;5106976;28;20209;-50
2022/09/28 07:48:52;;;;;;;35.93;23.40;;;8.50;99.90;;;;;;5109857;27;20185;-47
2022/09/28 07:51:24;;;;;;;32.10;21.53;;;8.50;99.90;;;;;;5119575;27;20200;-47
2022/09/28 07:54:16;;;;;;;38.10;20.80;;;8.50;99.90;;;;;;5125145;27;20188;-47
2022/09/28 07:57:05;;;;;;;32.73;20.27;;;8.60;99.90;;;;;;5108491;27;20282;-45
2022/09/28 07:59:40;;;;;;;29.43;18.80;;;8.70;99.90;;;;;;5103067;28;20231;-46
2022/09/28 08:02:41;;;;;;;30.30;19.73;;;8.80;99.90;;;;;;5102881;28;20242;-50
2022/09/28 08:05:09;;;;;;;29.77;19.37;;;8.80;99.90;;;;;;5103713;28;20876;-45
2022/09/28 08:07:37;;;;;;;30.33;19.50;;;9.00;99.90;;;;;;5102224;28;20300;-49
2022/09/28 08:10:07;;;;;;;27.23;17.73;;;9.00;99.90;;;;;;5104838;28;20787;-48
2022/09/28 08:12:54;;;;;;;26.27;16.83;;;9.00;99.90;;;;;;5090835;27;20455;-45
2022/09/28 08:15:41;;;;;;;26.60;17.57;;;9.00;99.90;;;;;;5102391;28;20752;-47
2022/09/28 08:18:16;;;;;;;29.27;17.13;;;9.00;99.90;;;;;;5109453;27;20256;-45
2022/09/28 08:23:30;;;;;;;35.47;21.00;;;9.10;99.90;;;;;;5122924;27;20212;-50
2022/09/28 08:25:57;;;;;;;34.10;20.97;;;9.10;99.90;;;;;;5123356;27;20192;-46
2022/09/28 08:28:25;;;;;;;29.50;20.67;;;9.00;99.90;;;;;;5122248;27;20193;-51
2022/09/28 08:31:00;;;;;;;29.03;18.97;;;9.10;99.90;;;;;;5115733;27;20216;-45
2022/09/28 08:33:46;;;;;;;23.07;16.30;;;9.20;99.90;;;;;;5121579;27;20891;-46
2022/09/28 08:36:34;;;;;;;23.77;15.73;;;9.30;99.90;;;;;;5124562;27;20258;-50
2022/09/28 08:39:04;;;;;;;21.77;14.90;;;9.50;99.90;;;;;;5126187;27;20203;-46
2022/09/28 08:41:57;;;;;;;20.73;15.03;;;9.60;99.90;;;;;;5123419;27;20315;-48
2022/09/28 08:44:47;;;;;;;22.80;15.13;;;9.60;99.90;;;;;;5106361;27;20409;-51
2022/09/28 08:50:31;;;;;;;24.13;15.37;;;9.80;99.90;;;;;;5105801;27;20193;-49
2022/09/28 08:53:34;;;;;;;20.70;15.93;;;9.80;99.90;;;;;;5103456;28;20216;-50
2022/09/28 08:56:15;;;;;;;24.00;15.77;;;9.80;99.90;;;;;;5104515;28;20296;-49
2022/09/28 08:58:45;;;;;;;20.23;14.97;;;9.90;99.90;;;;;;5100809;28;20304;-47
2022/09/28 09:01:38;;;;;;;23.10;16.63;;;9.90;99.90;;;;;;5091052;27;20274;-50
2022/09/28 09:04:09;;;;;;;22.70;15.47;;;9.80;99.90;;;;;;5102840;28;20304;-48
2022/09/28 09:07:16;;;;;;;18.10;13.97;;;9.90;99.90;;;;;;5103114;28;20248;-46
2022/09/28 09:10:03;;;;;;;21.93;14.40;;;9.90;99.90;;;;;;5101194;28;20200;-47
2022/09/28 09:12:36;;;;;;;21.13;14.50;;;9.90;99.90;;;;;;5102553;27;20217;-49
2022/09/28 09:15:32;;;;;;;20.97;13.07;;;10.00;99.90;;;;;;5103749;28;20790;-44
2022/09/28 09:18:17;;;;;;;19.50;13.10;;;10.10;99.90;;;;;;5100613;28;20549;-52
2022/09/28 09:21:13;;;;;;;18.53;13.60;;;10.00;99.90;;;;;;5111220;27;20189;-51
2022/09/28 09:23:53;;;;;;;18.87;13.13;;;10.00;99.90;;;;;;5098749;28;20204;-47
2022/09/28 09:26:34;;;;;;;20.40;14.17;;;10.10;99.90;;;;;;5103661;28;20308;-50
2022/09/28 09:29:25;;;;;;;22.63;14.07;;;10.30;99.90;;;;;;5104622;28;20186;-50
2022/09/28 09:32:15;;;;;;;19.57;14.17;;;10.40;99.90;;;;;;5089266;27;20204;-44
2022/09/28 09:35:04;;;;;;;20.43;13.13;;;10.50;99.90;;;;;;5097942;28;20194;-46
2022/09/28 09:38:05;;;;;;;20.57;13.60;;;10.50;99.90;;;;;;5101369;28;20973;-45
2022/09/28 09:41:08;;;;;;;16.47;12.50;;;10.60;99.90;;;;;;5096692;28;20200;-47
2022/09/28 09:44:18;;;;;;;16.87;11.50;;;10.70;99.90;;;;;;5101185;28;20297;-47
2022/09/28 09:46:53;;;;;;;16.07;11.47;;;11.00;99.90;;;;;;5089713;27;20590;-50
2022/09/28 09:49:30;;;;;;;16.40;12.07;;;11.10;99.90;;;;;;5104783;27;20196;-50
2022/09/28 09:52:04;;;;;;;13.60;10.40;;;11.20;99.90;;;;;;5120263;27;20197;-50
2022/09/28 09:54:37;;;;;;;18.50;12.47;;;11.30;99.90;;;;;;5120768;27;20184;-48
2022/09/28 09:57:12;;;;;;;16.53;12.37;;;11.50;99.90;;;;;;5123874;27;20692;-51
2022/09/28 09:59:53;;;;;;;15.10;11.80;;;11.50;99.90;;;;;;5120506;27;20405;-47
2022/09/28 10:02:27;;;;;;;15.30;10.67;;;11.50;99.90;;;;;;5119579;27;20279;-45
2022/09/28 10:05:16;;;;;;;16.57;11.80;;;11.50;99.90;;;;;;5120853;27;20228;-46
2022/09/28 10:07:50;;;;;;;13.40;11.20;;;11.50;99.90;;;;;;5119407;27;20318;-47
2022/09/28 10:10:22;;;;;;;15.03;10.43;;;11.50;99.90;;;;;;5123653;27;20280;-49
2022/09/28 10:12:52;;;;;;;14.93;10.87;;;11.40;99.90;;;;;;5120335;27;20200;-49
2022/09/28 10:15:24;;;;;;;11.93;9.70;;;11.40;99.90;;;;;;5122737;27;20212;-47
2022/09/28 10:18:14;;;;;;;12.53;9.83;;;11.40;99.90;;;;;;5119334;27;20203;-46
2022/09/28 10:21:00;;;;;;;10.03;8.67;;;11.30;99.90;;;;;;5098401;27;20949;-45
2022/09/28 10:23:37;;;;;;;10.37;8.47;;;11.30;99.90;;;;;;5099406;28;20216;-51
2022/09/28 10:26:10;;;;;;;9.97;8.20;;;11.40;99.90;;;;;;5102868;28;20225;-49
2022/09/28 10:28:45;;;;;;;8.43;6.70;;;11.40;99.90;;;;;;5099650;28;20200;-50
2022/09/28 10:31:38;;;;;;;7.90;7.10;;;11.40;99.90;;;;;;5102677;28;20188;-47
2022/09/28 10:34:12;;;;;;;8.87;6.63;;;11.40;99.90;;;;;;5093790;27;20209;-48
2022/09/28 10:36:48;;;;;;;7.63;6.80;;;11.30;99.90;;;;;;5119340;27;20227;-49
2022/09/28 10:39:25;;;;;;;10.67;7.23;;;11.40;99.90;;;;;;5082592;28;20209;-46
2022/09/28 10:41:54;;;;;;;8.23;6.60;;;11.40;99.90;;;;;;5079193;28;20289;-46
2022/09/28 10:44:27;;;;;;;10.73;7.33;;;11.50;99.90;;;;;;5080401;28;20220;-49
2022/09/28 10:47:19;;;;;;;8.13;5.93;;;11.50;99.90;;;;;;5083235;28;20577;-47
2022/09/28 10:49:49;;;;;;;6.37;5.57;;;11.60;99.90;;;;;;5089422;28;20444;-46
2022/09/28 10:52:45;;;;;;;6.73;5.70;;;11.60;99.90;;;;;;5102449;28;20189;-46
2022/09/28 10:55:35;;;;;;;5.30;4.80;;;11.60;99.90;;;;;;5090667;28;20200;-51
2022/09/28 10:58:23;;;;;;;6.57;4.33;;;11.70;99.90;;;;;;5101969;28;20205;-47
2022/09/28 11:00:51;;;;;;;4.73;4.33;;;11.80;99.90;;;;;;5099282;28;20886;-50
2022/09/28 11:03:25;;;;;;;5.30;4.83;;;11.80;99.90;;;;;;5101599;28;20218;-48
2022/09/28 11:05:58;;;;;;;4.77;4.47;;;11.80;99.90;;;;;;5087440;28;20549;-50
2022/09/28 11:08:29;;;;;;;5.63;4.63;;;11.80;99.90;;;;;;5102448;28;20193;-49
2022/09/28 11:11:05;;;;;;;5.67;5.10;;;11.80;99.90;;;;;;5104551;28;20189;-50
2022/09/28 11:13:42;;;;;;;5.77;4.17;;;11.70;99.90;;;;;;5103485;28;20216;-47
2022/09/28 11:16:24;;;;;;;4.77;4.37;;;11.70;99.90;;;;;;5106364;28;20236;-46
2022/09/28 11:18:52;;;;;;;4.70;4.30;;;11.90;99.90;;;;;;5111798;27;20189;-48
2022/09/28 11:21:27;;;;;;;4.73;3.53;;;12.00;99.90;;;;;;5119141;27;20200;-49
2022/09/28 11:24:07;;;;;;;4.23;3.57;;;12.30;99.90;;;;;;5100635;28;20441;-47
2022/09/28 11:26:41;;;;;;;6.33;4.60;;;12.50;99.90;;;;;;5102989;28;20304;-46
2022/09/28 11:29:26;;;;;;;4.27;3.93;;;12.50;99.90;;;;;;5106094;28;20261;-48
2022/09/28 11:32:14;;;;;;;5.43;3.80;;;12.60;99.90;;;;;;5107306;28;20229;-46
2022/09/28 11:35:03;;;;;;;5.20;4.00;;;12.70;99.90;;;;;;5104675;28;20196;-49
2022/09/28 11:37:48;;;;;;;4.03;3.30;;;12.70;99.90;;;;;;5099830;27;20747;-48
2022/09/28 11:40:29;;;;;;;4.50;3.23;;;12.80;99.90;;;;;;5126476;27;20224;-46
2022/09/28 11:43:08;;;;;;;2.87;2.67;;;12.70;99.90;;;;;;5123494;27;20185;-45
2022/09/28 11:45:50;;;;;;;2.30;2.10;;;12.70;99.90;;;;;;5123106;27;20797;-48
2022/09/28 11:48:22;;;;;;;4.17;2.27;;;12.70;99.90;;;;;;5121991;27;20200;-49
2022/09/28 11:50:54;;;;;;;2.57;1.00;;;12.80;99.90;;;;;;5113680;27;20329;-48
2022/09/28 11:53:27;;;;;;;3.37;1.63;;;12.80;99.90;;;;;;5112479;27;20205;-49
2022/09/28 11:56:05;;;;;;;3.10;1.20;;;12.90;99.90;;;;;;5125364;27;20173;-45
2022/09/28 11:58:35;;;;;;;2.40;1.30;;;13.10;99.90;;;;;;5124195;27;20196;-48
2022/09/28 12:01:08;;;;;;;1.47;1.30;;;13.10;99.90;;;;;;5125538;27;20197;-44
2022/09/28 12:04:00;;;;;;;2.83;2.20;;;13.20;99.90;;;;;;5122615;27;20200;-50
2022/09/28 12:06:34;;;;;;;2.00;1.50;;;13.20;99.90;;;;;;5124539;27;20209;-49
2022/09/28 12:09:08;;;;;;;1.73;1.33;;;13.30;99.90;;;;;;5107967;27;20217;-47
2022/09/28 12:11:54;;;;;;;1.33;0.97;;;13.30;99.90;;;;;;5101491;28;20743;-48
2022/09/28 12:14:38;;;;;;;2.87;1.20;;;13.50;99.90;;;;;;5102132;28;20197;-48
2022/09/28 12:17:12;;;;;;;1.30;1.07;;;13.30;99.90;;;;;;5106747;28;20602;-49
2022/09/28 12:19:48;;;;;;;2.07;1.80;;;13.30;99.90;;;;;;5109863;27;20658;-48
2022/09/28 12:22:22;;;;;;;1.70;1.37;;;13.10;99.90;;;;;;5086123;28;20197;-50
2022/09/28 12:24:53;;;;;;;2.50;1.53;;;13.10;99.90;;;;;;5082319;27;20223;-52
2022/09/28 12:27:26;;;;;;;4.80;1.57;;;13.00;99.90;;;;;;5106368;28;20244;-46
2022/09/28 12:29:58;;;;;;;1.07;1.03;;;13.00;99.90;;;;;;5103937;28;20215;-45
2022/09/28 12:32:34;;;;;;;1.53;0.70;;;13.00;99.90;;;;;;5105528;28;20200;-50
2022/09/28 12:35:01;;;;;;;1.43;1.00;;;13.00;99.90;;;;;;5103492;28;20173;-48
2022/09/28 12:37:41;;;;;;;4.53;1.47;;;12.90;99.90;;;;;;5104937;28;20213;-51
2022/09/28 12:40:30;;;;;;;3.37;1.17;;;12.90;99.90;;;;;;5093502;27;20284;-50
2022/09/28 12:43:13;;;;;;;1.80;1.10;;;12.90;99.90;;;;;;5103601;28;20269;-47
2022/09/28 12:46:00;;;;;;;1.97;0.93;;;13.00;99.90;;;;;;5102101;28;20209;-48
2022/09/28 12:48:46;;;;;;;1.80;0.80;;;13.00;99.90;;;;;;5110899;27;20567;-51
2022/09/28 12:51:26;;;;;;;3.80;1.37;;;13.00;99.90;;;;;;5109501;27;20653;-46
2022/09/28 12:54:03;;;;;;;2.87;1.20;;;13.10;99.90;;;;;;5122515;27;20207;-50
2022/09/28 12:56:40;;;;;;;2.17;1.23;;;13.10;99.90;;;;;;5111042;27;20673;-52
2022/09/28 12:59:20;;;;;;;1.93;1.43;;;13.20;99.90;;;;;;5126165;27;20188;-48
2022/09/28 13:02:13;;;;;;;1.10;1.00;;;13.40;99.90;;;;;;5122407;27;20185;-46
2022/09/28 13:05:16;;;;;;;0.70;0.70;;;13.50;99.90;;;;;;5120787;27;20221;-50
2022/09/28 13:07:52;;;;;;;1.00;0.90;;;13.50;99.90;;;;;;5121692;27;20250;-45
2022/09/28 13:10:31;;;;;;;0.93;0.80;;;13.70;99.90;;;;;;5126113;27;20245;-46
2022/09/28 13:13:15;;;;;;;0.60;0.60;;;13.90;99.90;;;;;;5098169;28;20224;-47
2022/09/28 13:15:46;;;;;;;1.23;1.13;;;14.00;99.90;;;;;;5101268;28;20181;-48
2022/09/28 13:18:20;;;;;;;1.50;1.10;;;13.90;99.90;;;;;;5109194;27;20200;-45
2022/09/28 13:21:12;;;;;;;2.10;0.77;;;13.90;99.90;;;;;;5112768;27;20196;-48
2022/09/28 13:23:42;;;;;;;1.93;1.20;;;13.90;99.90;;;;;;5121430;27;20209;-50
2022/09/28 13:26:19;;;;;;;1.73;0.80;;;13.90;99.90;;;;;;5107305;27;20713;-48
2022/09/28 13:28:49;;;;;;;1.37;1.27;;;13.80;99.90;;;;;;5101120;28;20185;-45
2022/09/28 13:31:20;;;;;;;1.77;1.47;;;13.60;99.90;;;;;;5104984;28;20661;-46
2022/09/28 13:33:49;;;;;;;2.47;1.60;;;13.30;99.90;;;;;;5100261;28;20962;-47